sensor_id;sensor_type;location;lat;lon;timestamp;temperature;humidity
7000;DHT22;3540;53.242;10.408;2024-01-30T00:01:35;3.20;99.90
7000;DHT22;3540;53.242;10.408;2024-01-30T00:04:02;3.10;99.90
7000;DHT22;3540;53.242;10.408;2024-01-30T00:06:27;3.10;99.90
7000;DHT22;3540;53.242;10.408;2024-01-30T00:08:53;3.00;99.90
7000;DHT22;3540;53.242;10.408;2024-01-30T00:11:18;3.00;99.90
7000;DHT22;3540;53.242;10.408;2024-01-30T00:13:44;3.00;99.90
7000;DHT22;3540;53.242;10.408;2024-01-30T00:16:23;2.90;99.90
7000;DHT22;3540;53.242;10.408;2024-01-30T00:18:50;2.90;99.90
7000;DHT22;3540;53.242;10.408;2024-01-30T00:21:16;2.80;99.90
7000;DHT22;3540;53.242;10.408;2024-01-30T00:23:41;2.80;99.90
7000;DHT22;3540;53.242;10.408;2024-01-30T00:26:07;2.80;99.90
7000;DHT22;3540;53.242;10.408;2024-01-30T00:28:33;2.80;99.90
7000;DHT22;3540;53.242;10.408;2024-01-30T00:30:58;2.80;99.90
7000;DHT22;3540;53.242;10.408;2024-01-30T00:33:24;2.80;99.90
7000;DHT22;3540;53.242;10.408;2024-01-30T00:35:49;2.80;99.90
7000;DHT22;3540;53.242;10.408;2024-01-30T00:38:15;2.70;99.90
7000;DHT22;3540;53.242;10.408;2024-01-30T00:40:41;2.70;99.90
7000;DHT22;3540;53.242;10.408;2024-01-30T00:43:07;2.70;99.90
7000;DHT22;3540;53.242;10.408;2024-01-30T00:45:32;2.70;99.90
7000;DHT22;3540;53.242;10.408;2024-01-30T00:47:58;2.70;99.90
7000;DHT22;3540;53.242;10.408;2024-01-30T00:50:23;2.70;99.90
7000;DHT22;3540;53.242;10.408;2024-01-30T00:52:49;2.70;99.90
7000;DHT22;3540;53.242;10.408;2024-01-30T00:55:15;2.70;99.90
7000;DHT22;3540;53.242;10.408;2024-01-30T00:57:40;2.60;99.90
7000;DHT22;3540;53.242;10.408;2024-01-30T01:00:07;2.60;99.90
7000;DHT22;3540;53.242;10.408;2024-01-30T01:02:34;2.60;99.90
7000;DHT22;3540;53.242;10.408;2024-01-30T01:05:00;2.50;99.90
7000;DHT22;3540;53.242;10.408;2024-01-30T01:07:26;2.50;99.90
7000;DHT22;3540;53.242;10.408;2024-01-30T01:09:51;2.50;99.90
7000;DHT22;3540;53.242;10.408;2024-01-30T01:12:17;2.50;99.90
7000;DHT22;3540;53.242;10.408;2024-01-30T01:14:42;2.50;99.90
7000;DHT22;3540;53.242;10.408;2024-01-30T01:17:08;2.50;99.90
7000;DHT22;3540;53.242;10.408;2024-01-30T01:19:34;2.50;99.90
7000;DHT22;3540;53.242;10.408;2024-01-30T01:21:59;2.50;99.90
7000;DHT22;3540;53.242;10.408;2024-01-30T01:24:25;2.50;99.90
7000;DHT22;3540;53.242;10.408;2024-01-30T01:26:51;2.50;99.90
7000;DHT22;3540;53.242;10.408;2024-01-30T01:29:16;2.40;99.90
7000;DHT22;3540;53.242;10.408;2024-01-30T01:31:42;2.40;99.90
7000;DHT22;3540;53.242;10.408;2024-01-30T01:34:10;2.30;99.90
7000;DHT22;3540;53.242;10.408;2024-01-30T01:36:36;2.20;99.90
7000;DHT22;3540;53.242;10.408;2024-01-30T01:39:02;2.20;99.90
7000;DHT22;3540;53.242;10.408;2024-01-30T01:41:32;2.10;99.90
7000;DHT22;3540;53.242;10.408;2024-01-30T01:43:59;2.10;99.90
7000;DHT22;3540;53.242;10.408;2024-01-30T01:46:30;2.10;99.90
7000;DHT22;3540;53.242;10.408;2024-01-30T01:48:58;2.10;99.90
7000;DHT22;3540;53.242;10.408;2024-01-30T01:51:27;2.00;99.90
7000;DHT22;3540;53.242;10.408;2024-01-30T01:53:57;2.00;99.90
7000;DHT22;3540;53.242;10.408;2024-01-30T01:56:23;2.00;99.90
7000;DHT22;3540;53.242;10.408;2024-01-30T01:58:50;2.00;99.90
7000;DHT22;3540;53.242;10.408;2024-01-30T02:01:19;2.00;99.90
7000;DHT22;3540;53.242;10.408;2024-01-30T02:03:46;2.00;99.90
7000;DHT22;3540;53.242;10.408;2024-01-30T02:06:15;1.90;99.90
7000;DHT22;3540;53.242;10.408;2024-01-30T02:08:41;1.90;99.90
7000;DHT22;3540;53.242;10.408;2024-01-30T02:11:07;1.90;99.90
7000;DHT22;3540;53.242;10.408;2024-01-30T02:13:33;1.90;99.90
7000;DHT22;3540;53.242;10.408;2024-01-30T02:15:59;1.90;99.90
7000;DHT22;3540;53.242;10.408;2024-01-30T02:18:26;1.90;99.90
7000;DHT22;3540;53.242;10.408;2024-01-30T02:20:54;1.90;99.90
7000;DHT22;3540;53.242;10.408;2024-01-30T02:23:20;1.90;99.90
7000;DHT22;3540;53.242;10.408;2024-01-30T02:25:45;1.90;99.90
7000;DHT22;3540;53.242;10.408;2024-01-30T02:28:12;1.90;99.90
7000;DHT22;3540;53.242;10.408;2024-01-30T02:30:44;1.90;99.90
7000;DHT22;3540;53.242;10.408;2024-01-30T02:33:10;1.90;99.90
7000;DHT22;3540;53.242;10.408;2024-01-30T02:35:35;1.90;99.90
7000;DHT22;3540;53.242;10.408;2024-01-30T02:38:01;1.90;99.90
7000;DHT22;3540;53.242;10.408;2024-01-30T02:40:27;1.90;99.90
7000;DHT22;3540;53.242;10.408;2024-01-30T02:42:52;1.90;99.90
7000;DHT22;3540;53.242;10.408;2024-01-30T02:45:18;1.90;99.90
7000;DHT22;3540;53.242;10.408;2024-01-30T02:47:44;2.00;99.90
7000;DHT22;3540;53.242;10.408;2024-01-30T02:50:10;1.90;99.90
7000;DHT22;3540;53.242;10.408;2024-01-30T02:52:35;2.00;99.90
7000;DHT22;3540;53.242;10.408;2024-01-30T02:55:01;2.00;99.90
7000;DHT22;3540;53.242;10.408;2024-01-30T02:57:28;2.10;99.90
7000;DHT22;3540;53.242;10.408;2024-01-30T02:59:53;2.10;99.90
7000;DHT22;3540;53.242;10.408;2024-01-30T03:02:19;2.10;99.90
7000;DHT22;3540;53.242;10.408;2024-01-30T03:04:45;2.10;99.90
7000;DHT22;3540;53.242;10.408;2024-01-30T03:07:11;2.20;99.90
7000;DHT22;3540;53.242;10.408;2024-01-30T03:09:37;2.10;99.90
7000;DHT22;3540;53.242;10.408;2024-01-30T03:12:03;2.20;99.90
7000;DHT22;3540;53.242;10.408;2024-01-30T03:14:30;2.10;99.90
7000;DHT22;3540;53.242;10.408;2024-01-30T03:16:56;2.20;99.90
7000;DHT22;3540;53.242;10.408;2024-01-30T03:19:22;2.20;99.90
7000;DHT22;3540;53.242;10.408;2024-01-30T03:21:47;2.20;99.90
7000;DHT22;3540;53.242;10.408;2024-01-30T03:24:13;2.20;99.90
7000;DHT22;3540;53.242;10.408;2024-01-30T03:26:38;2.20;99.90
7000;DHT22;3540;53.242;10.408;2024-01-30T03:29:04;2.20;99.90
7000;DHT22;3540;53.242;10.408;2024-01-30T03:31:30;2.20;99.90
7000;DHT22;3540;53.242;10.408;2024-01-30T03:33:55;2.30;99.90
7000;DHT22;3540;53.242;10.408;2024-01-30T03:36:21;2.30;99.90
7000;DHT22;3540;53.242;10.408;2024-01-30T03:38:46;2.40;99.90
7000;DHT22;3540;53.242;10.408;2024-01-30T03:41:12;2.40;99.90
7000;DHT22;3540;53.242;10.408;2024-01-30T03:43:38;2.40;99.90
7000;DHT22;3540;53.242;10.408;2024-01-30T03:46:04;2.40;99.90
7000;DHT22;3540;53.242;10.408;2024-01-30T03:48:30;2.40;99.90
7000;DHT22;3540;53.242;10.408;2024-01-30T03:50:55;2.40;99.90
7000;DHT22;3540;53.242;10.408;2024-01-30T03:53:21;2.40;99.90
7000;DHT22;3540;53.242;10.408;2024-01-30T03:55:47;2.40;99.90
7000;DHT22;3540;53.242;10.408;2024-01-30T03:58:16;2.40;99.90
7000;DHT22;3540;53.242;10.408;2024-01-30T04:00:41;2.40;99.90
7000;DHT22;3540;53.242;10.408;2024-01-30T04:03:07;2.40;99.90
7000;DHT22;3540;53.242;10.408;2024-01-30T04:05:33;2.40;99.90
7000;DHT22;3540;53.242;10.408;2024-01-30T04:07:59;2.40;99.90
7000;DHT22;3540;53.242;10.408;2024-01-30T04:10:24;2.40;99.90
7000;DHT22;3540;53.242;10.408;2024-01-30T04:12:50;2.50;99.90
7000;DHT22;3540;53.242;10.408;2024-01-30T04:15:17;2.50;99.90
7000;DHT22;3540;53.242;10.408;2024-01-30T04:17:43;2.50;99.90
7000;DHT22;3540;53.242;10.408;2024-01-30T04:20:13;2.50;99.90
7000;DHT22;3540;53.242;10.408;2024-01-30T04:22:40;2.50;99.90
7000;DHT22;3540;53.242;10.408;2024-01-30T04:25:06;2.50;99.90
7000;DHT22;3540;53.242;10.408;2024-01-30T04:27:31;2.60;99.90
7000;DHT22;3540;53.242;10.408;2024-01-30T04:29:57;2.60;99.90
7000;DHT22;3540;53.242;10.408;2024-01-30T04:32:23;2.60;99.90
7000;DHT22;3540;53.242;10.408;2024-01-30T04:34:48;2.60;99.90
7000;DHT22;3540;53.242;10.408;2024-01-30T04:37:14;2.60;99.90
7000;DHT22;3540;53.242;10.408;2024-01-30T04:39:40;2.60;99.90
7000;DHT22;3540;53.242;10.408;2024-01-30T04:42:06;2.60;99.90
7000;DHT22;3540;53.242;10.408;2024-01-30T04:44:32;2.60;99.90
7000;DHT22;3540;53.242;10.408;2024-01-30T04:46:57;2.60;99.90
7000;DHT22;3540;53.242;10.408;2024-01-30T04:49:27;2.60;99.90
7000;DHT22;3540;53.242;10.408;2024-01-30T04:51:52;2.60;99.90
7000;DHT22;3540;53.242;10.408;2024-01-30T04:54:18;2.60;99.90
7000;DHT22;3540;53.242;10.408;2024-01-30T04:56:44;2.50;99.90
7000;DHT22;3540;53.242;10.408;2024-01-30T04:59:09;2.50;99.90
7000;DHT22;3540;53.242;10.408;2024-01-30T05:01:35;2.50;99.90
7000;DHT22;3540;53.242;10.408;2024-01-30T05:04:00;2.50;99.90
7000;DHT22;3540;53.242;10.408;2024-01-30T05:06:27;2.50;99.90
7000;DHT22;3540;53.242;10.408;2024-01-30T05:08:52;2.50;99.90
7000;DHT22;3540;53.242;10.408;2024-01-30T05:11:18;2.60;99.90
7000;DHT22;3540;53.242;10.408;2024-01-30T05:13:44;2.60;99.90
7000;DHT22;3540;53.242;10.408;2024-01-30T05:16:09;2.60;99.90
7000;DHT22;3540;53.242;10.408;2024-01-30T05:18:35;2.70;99.90
7000;DHT22;3540;53.242;10.408;2024-01-30T05:21:02;2.70;99.90
7000;DHT22;3540;53.242;10.408;2024-01-30T05:23:28;2.70;99.90
7000;DHT22;3540;53.242;10.408;2024-01-30T05:25:53;2.60;99.90
7000;DHT22;3540;53.242;10.408;2024-01-30T05:28:19;2.70;99.90
7000;DHT22;3540;53.242;10.408;2024-01-30T05:30:45;2.70;99.90
7000;DHT22;3540;53.242;10.408;2024-01-30T05:33:10;2.70;99.90
7000;DHT22;3540;53.242;10.408;2024-01-30T05:35:37;2.60;99.90
7000;DHT22;3540;53.242;10.408;2024-01-30T05:38:03;2.60;99.90
7000;DHT22;3540;53.242;10.408;2024-01-30T05:40:30;2.60;99.90
7000;DHT22;3540;53.242;10.408;2024-01-30T05:42:55;2.60;99.90
7000;DHT22;3540;53.242;10.408;2024-01-30T05:45:21;2.60;99.90
7000;DHT22;3540;53.242;10.408;2024-01-30T05:47:48;2.60;99.90
7000;DHT22;3540;53.242;10.408;2024-01-30T05:50:14;2.60;99.90
7000;DHT22;3540;53.242;10.408;2024-01-30T05:52:40;2.60;99.90
7000;DHT22;3540;53.242;10.408;2024-01-30T05:55:06;2.70;99.90
7000;DHT22;3540;53.242;10.408;2024-01-30T05:57:32;2.70;99.90
7000;DHT22;3540;53.242;10.408;2024-01-30T05:59:57;2.70;99.90
7000;DHT22;3540;53.242;10.408;2024-01-30T06:02:23;2.70;99.90
7000;DHT22;3540;53.242;10.408;2024-01-30T06:04:48;2.70;99.90
7000;DHT22;3540;53.242;10.408;2024-01-30T06:07:14;2.70;99.90
7000;DHT22;3540;53.242;10.408;2024-01-30T06:09:40;2.80;99.90
7000;DHT22;3540;53.242;10.408;2024-01-30T06:12:09;2.80;99.90
7000;DHT22;3540;53.242;10.408;2024-01-30T06:14:37;2.80;99.90
7000;DHT22;3540;53.242;10.408;2024-01-30T06:17:03;2.80;99.90
7000;DHT22;3540;53.242;10.408;2024-01-30T06:19:28;2.80;99.90
7000;DHT22;3540;53.242;10.408;2024-01-30T06:21:54;2.80;99.90
7000;DHT22;3540;53.242;10.408;2024-01-30T06:24:20;2.80;99.90
7000;DHT22;3540;53.242;10.408;2024-01-30T06:26:45;2.80;99.90
7000;DHT22;3540;53.242;10.408;2024-01-30T06:29:11;2.80;99.90
7000;DHT22;3540;53.242;10.408;2024-01-30T06:31:43;2.80;99.90
7000;DHT22;3540;53.242;10.408;2024-01-30T06:34:09;2.80;99.90
7000;DHT22;3540;53.242;10.408;2024-01-30T06:36:35;2.80;99.90
7000;DHT22;3540;53.242;10.408;2024-01-30T06:39:02;2.80;99.90
7000;DHT22;3540;53.242;10.408;2024-01-30T06:41:27;2.90;99.90
7000;DHT22;3540;53.242;10.408;2024-01-30T06:43:53;2.90;99.90
7000;DHT22;3540;53.242;10.408;2024-01-30T06:46:19;2.90;99.90
7000;DHT22;3540;53.242;10.408;2024-01-30T06:48:44;2.90;99.90
7000;DHT22;3540;53.242;10.408;2024-01-30T06:51:11;2.90;99.90
7000;DHT22;3540;53.242;10.408;2024-01-30T06:53:37;2.90;99.90
7000;DHT22;3540;53.242;10.408;2024-01-30T06:56:03;2.90;99.90
7000;DHT22;3540;53.242;10.408;2024-01-30T06:58:29;2.90;99.90
7000;DHT22;3540;53.242;10.408;2024-01-30T07:00:55;2.90;99.90
7000;DHT22;3540;53.242;10.408;2024-01-30T07:03:21;2.90;99.90
7000;DHT22;3540;53.242;10.408;2024-01-30T07:05:47;3.00;99.90
7000;DHT22;3540;53.242;10.408;2024-01-30T07:08:12;3.00;99.90
7000;DHT22;3540;53.242;10.408;2024-01-30T07:10:38;3.00;99.90
7000;DHT22;3540;53.242;10.408;2024-01-30T07:13:04;3.00;99.90
7000;DHT22;3540;53.242;10.408;2024-01-30T07:15:31;3.10;99.90
7000;DHT22;3540;53.242;10.408;2024-01-30T07:17:56;3.10;99.90
7000;DHT22;3540;53.242;10.408;2024-01-30T07:20:22;3.10;99.90
7000;DHT22;3540;53.242;10.408;2024-01-30T07:22:48;3.20;99.90
7000;DHT22;3540;53.242;10.408;2024-01-30T07:25:13;3.30;99.90
7000;DHT22;3540;53.242;10.408;2024-01-30T07:27:39;3.40;99.90
7000;DHT22;3540;53.242;10.408;2024-01-30T07:30:05;3.40;99.90
7000;DHT22;3540;53.242;10.408;2024-01-30T07:32:31;3.50;99.90
7000;DHT22;3540;53.242;10.408;2024-01-30T07:34:57;3.60;99.90
7000;DHT22;3540;53.242;10.408;2024-01-30T07:37:23;3.60;99.90
7000;DHT22;3540;53.242;10.408;2024-01-30T07:39:48;3.60;99.90
7000;DHT22;3540;53.242;10.408;2024-01-30T07:42:14;3.70;99.90
7000;DHT22;3540;53.242;10.408;2024-01-30T07:44:40;3.70;99.90
7000;DHT22;3540;53.242;10.408;2024-01-30T07:47:05;3.70;99.90
7000;DHT22;3540;53.242;10.408;2024-01-30T07:49:34;3.80;99.90
7000;DHT22;3540;53.242;10.408;2024-01-30T07:52:00;3.80;99.90
7000;DHT22;3540;53.242;10.408;2024-01-30T07:54:25;3.90;99.90
7000;DHT22;3540;53.242;10.408;2024-01-30T07:56:51;3.90;99.90
7000;DHT22;3540;53.242;10.408;2024-01-30T07:59:17;3.90;99.90
7000;DHT22;3540;53.242;10.408;2024-01-30T08:01:44;3.90;99.90
7000;DHT22;3540;53.242;10.408;2024-01-30T08:04:09;4.00;99.90
7000;DHT22;3540;53.242;10.408;2024-01-30T08:06:35;4.00;99.90
7000;DHT22;3540;53.242;10.408;2024-01-30T08:09:00;4.00;99.90
7000;DHT22;3540;53.242;10.408;2024-01-30T08:11:26;4.10;99.90
7000;DHT22;3540;53.242;10.408;2024-01-30T08:13:54;4.10;99.90
7000;DHT22;3540;53.242;10.408;2024-01-30T08:16:19;4.20;99.90
7000;DHT22;3540;53.242;10.408;2024-01-30T08:18:45;4.20;99.90
7000;DHT22;3540;53.242;10.408;2024-01-30T08:21:11;4.30;99.90
7000;DHT22;3540;53.242;10.408;2024-01-30T08:23:38;4.30;99.90
7000;DHT22;3540;53.242;10.408;2024-01-30T08:26:04;4.40;99.90
7000;DHT22;3540;53.242;10.408;2024-01-30T08:28:30;4.40;99.90
7000;DHT22;3540;53.242;10.408;2024-01-30T08:30:56;4.40;99.90
7000;DHT22;3540;53.242;10.408;2024-01-30T08:33:21;4.40;99.90
7000;DHT22;3540;53.242;10.408;2024-01-30T08:35:47;4.50;99.90
7000;DHT22;3540;53.242;10.408;2024-01-30T08:38:13;4.50;99.90
7000;DHT22;3540;53.242;10.408;2024-01-30T08:40:38;4.60;99.90
7000;DHT22;3540;53.242;10.408;2024-01-30T08:43:04;4.60;99.90
7000;DHT22;3540;53.242;10.408;2024-01-30T08:45:29;4.70;99.90
7000;DHT22;3540;53.242;10.408;2024-01-30T08:47:56;4.70;99.90
7000;DHT22;3540;53.242;10.408;2024-01-30T08:50:22;4.80;99.90
7000;DHT22;3540;53.242;10.408;2024-01-30T08:52:48;4.80;99.90
7000;DHT22;3540;53.242;10.408;2024-01-30T08:55:13;4.80;99.90
7000;DHT22;3540;53.242;10.408;2024-01-30T08:57:39;4.90;99.90
7000;DHT22;3540;53.242;10.408;2024-01-30T09:00:05;4.90;99.90
7000;DHT22;3540;53.242;10.408;2024-01-30T09:02:33;5.00;99.90
7000;DHT22;3540;53.242;10.408;2024-01-30T09:04:59;5.00;99.90
7000;DHT22;3540;53.242;10.408;2024-01-30T09:07:25;5.00;99.90
7000;DHT22;3540;53.242;10.408;2024-01-30T09:09:50;5.00;99.90
7000;DHT22;3540;53.242;10.408;2024-01-30T09:12:16;5.00;99.90
7000;DHT22;3540;53.242;10.408;2024-01-30T09:14:42;5.10;99.90
7000;DHT22;3540;53.242;10.408;2024-01-30T09:17:08;5.10;99.90
7000;DHT22;3540;53.242;10.408;2024-01-30T09:19:33;5.20;99.90
7000;DHT22;3540;53.242;10.408;2024-01-30T09:21:59;5.20;99.90
7000;DHT22;3540;53.242;10.408;2024-01-30T09:24:26;5.30;99.90
7000;DHT22;3540;53.242;10.408;2024-01-30T09:26:51;5.30;99.90
7000;DHT22;3540;53.242;10.408;2024-01-30T09:29:17;5.40;99.90
7000;DHT22;3540;53.242;10.408;2024-01-30T09:31:44;5.50;99.90
7000;DHT22;3540;53.242;10.408;2024-01-30T09:34:10;5.60;99.90
7000;DHT22;3540;53.242;10.408;2024-01-30T09:36:36;5.70;99.90
7000;DHT22;3540;53.242;10.408;2024-01-30T09:39:01;5.80;99.90
7000;DHT22;3540;53.242;10.408;2024-01-30T09:41:27;6.00;99.90
7000;DHT22;3540;53.242;10.408;2024-01-30T09:43:55;6.10;99.90
7000;DHT22;3540;53.242;10.408;2024-01-30T09:46:26;6.20;99.90
7000;DHT22;3540;53.242;10.408;2024-01-30T09:48:54;6.30;99.90
7000;DHT22;3540;53.242;10.408;2024-01-30T09:51:21;6.30;99.90
7000;DHT22;3540;53.242;10.408;2024-01-30T09:53:48;6.40;99.90
7000;DHT22;3540;53.242;10.408;2024-01-30T09:56:14;6.50;99.90
7000;DHT22;3540;53.242;10.408;2024-01-30T09:58:40;6.60;99.90
7000;DHT22;3540;53.242;10.408;2024-01-30T10:01:06;6.70;99.90
7000;DHT22;3540;53.242;10.408;2024-01-30T10:03:32;6.80;99.90
7000;DHT22;3540;53.242;10.408;2024-01-30T10:05:57;6.80;99.90
7000;DHT22;3540;53.242;10.408;2024-01-30T10:08:23;6.80;99.90
7000;DHT22;3540;53.242;10.408;2024-01-30T10:10:49;6.90;99.90
7000;DHT22;3540;53.242;10.408;2024-01-30T10:13:16;6.90;99.90
7000;DHT22;3540;53.242;10.408;2024-01-30T10:15:41;7.00;99.90
7000;DHT22;3540;53.242;10.408;2024-01-30T10:18:08;7.10;99.90
7000;DHT22;3540;53.242;10.408;2024-01-30T10:20:35;7.10;99.90
7000;DHT22;3540;53.242;10.408;2024-01-30T10:23:01;7.20;99.90
7000;DHT22;3540;53.242;10.408;2024-01-30T10:25:27;7.30;99.90
7000;DHT22;3540;53.242;10.408;2024-01-30T10:27:56;7.40;99.90
7000;DHT22;3540;53.242;10.408;2024-01-30T10:30:22;7.40;99.90
7000;DHT22;3540;53.242;10.408;2024-01-30T10:32:48;7.50;99.90
7000;DHT22;3540;53.242;10.408;2024-01-30T10:35:14;7.60;99.90
7000;DHT22;3540;53.242;10.408;2024-01-30T10:37:41;7.70;99.90
7000;DHT22;3540;53.242;10.408;2024-01-30T10:40:09;7.80;99.90
7000;DHT22;3540;53.242;10.408;2024-01-30T10:42:44;8.00;99.90
7000;DHT22;3540;53.242;10.408;2024-01-30T10:45:14;8.00;99.90
7000;DHT22;3540;53.242;10.408;2024-01-30T10:47:49;8.20;99.90
7000;DHT22;3540;53.242;10.408;2024-01-30T10:50:15;8.30;99.90
7000;DHT22;3540;53.242;10.408;2024-01-30T10:52:41;8.30;99.90
7000;DHT22;3540;53.242;10.408;2024-01-30T10:55:08;8.40;99.90
7000;DHT22;3540;53.242;10.408;2024-01-30T10:57:37;8.50;99.90
7000;DHT22;3540;53.242;10.408;2024-01-30T11:00:05;8.60;99.90
7000;DHT22;3540;53.242;10.408;2024-01-30T11:02:37;8.60;99.90
7000;DHT22;3540;53.242;10.408;2024-01-30T11:05:04;8.70;99.90
7000;DHT22;3540;53.242;10.408;2024-01-30T11:07:30;8.80;99.90
7000;DHT22;3540;53.242;10.408;2024-01-30T11:12:33;9.00;99.90
7000;DHT22;3540;53.242;10.408;2024-01-30T11:15:17;9.10;99.90
7000;DHT22;3540;53.242;10.408;2024-01-30T11:17:51;9.10;99.90
7000;DHT22;3540;53.242;10.408;2024-01-30T11:20:27;9.20;99.90
7000;DHT22;3540;53.242;10.408;2024-01-30T11:22:55;9.20;99.90
7000;DHT22;3540;53.242;10.408;2024-01-30T11:25:22;9.30;99.90
7000;DHT22;3540;53.242;10.408;2024-01-30T11:27:54;9.40;99.90
7000;DHT22;3540;53.242;10.408;2024-01-30T11:30:26;9.50;99.90
7000;DHT22;3540;53.242;10.408;2024-01-30T11:33:30;9.50;99.90
7000;DHT22;3540;53.242;10.408;2024-01-30T11:35:57;9.50;99.90
7000;DHT22;3540;53.242;10.408;2024-01-30T11:38:26;9.60;99.90
7000;DHT22;3540;53.242;10.408;2024-01-30T11:40:54;9.70;99.90
7000;DHT22;3540;53.242;10.408;2024-01-30T11:43:20;9.70;99.90
7000;DHT22;3540;53.242;10.408;2024-01-30T11:45:45;9.70;99.90
7000;DHT22;3540;53.242;10.408;2024-01-30T11:48:12;9.80;99.90
7000;DHT22;3540;53.242;10.408;2024-01-30T11:50:39;9.80;99.90
7000;DHT22;3540;53.242;10.408;2024-01-30T11:53:05;9.90;99.90
7000;DHT22;3540;53.242;10.408;2024-01-30T11:55:31;9.90;99.90
7000;DHT22;3540;53.242;10.408;2024-01-30T11:57:58;10.00;99.90
7000;DHT22;3540;53.242;10.408;2024-01-30T12:00:24;10.10;99.90
7000;DHT22;3540;53.242;10.408;2024-01-30T12:02:54;10.10;99.90
7000;DHT22;3540;53.242;10.408;2024-01-30T12:05:23;10.20;99.90
7000;DHT22;3540;53.242;10.408;2024-01-30T12:07:49;10.30;99.90
7000;DHT22;3540;53.242;10.408;2024-01-30T12:10:15;10.30;99.90
7000;DHT22;3540;53.242;10.408;2024-01-30T12:12:54;10.40;99.90
7000;DHT22;3540;53.242;10.408;2024-01-30T12:15:22;10.40;99.90
7000;DHT22;3540;53.242;10.408;2024-01-30T12:17:48;10.40;99.90
7000;DHT22;3540;53.242;10.408;2024-01-30T12:20:15;10.50;99.90
7000;DHT22;3540;53.242;10.408;2024-01-30T12:22:44;10.50;99.90
7000;DHT22;3540;53.242;10.408;2024-01-30T12:25:11;10.50;99.90
7000;DHT22;3540;53.242;10.408;2024-01-30T12:27:39;10.50;99.90
7000;DHT22;3540;53.242;10.408;2024-01-30T12:30:12;10.50;99.90
7000;DHT22;3540;53.242;10.408;2024-01-30T12:32:44;10.50;99.90
7000;DHT22;3540;53.242;10.408;2024-01-30T12:35:14;10.50;99.90
7000;DHT22;3540;53.242;10.408;2024-01-30T12:37:40;10.60;99.90
7000;DHT22;3540;53.242;10.408;2024-01-30T12:40:09;10.60;99.90
7000;DHT22;3540;53.242;10.408;2024-01-30T12:42:35;10.60;99.90
7000;DHT22;3540;53.242;10.408;2024-01-30T12:45:04;10.50;99.90
7000;DHT22;3540;53.242;10.408;2024-01-30T12:47:30;10.60;99.90
7000;DHT22;3540;53.242;10.408;2024-01-30T12:49:56;10.60;99.90
7000;DHT22;3540;53.242;10.408;2024-01-30T12:52:22;10.60;99.90
7000;DHT22;3540;53.242;10.408;2024-01-30T12:54:48;10.60;99.90
7000;DHT22;3540;53.242;10.408;2024-01-30T12:57:14;10.60;99.90
7000;DHT22;3540;53.242;10.408;2024-01-30T12:59:40;10.60;99.90
7000;DHT22;3540;53.242;10.408;2024-01-30T13:02:07;10.50;99.90
7000;DHT22;3540;53.242;10.408;2024-01-30T13:04:32;10.50;99.90
7000;DHT22;3540;53.242;10.408;2024-01-30T13:06:58;10.50;99.90
7000;DHT22;3540;53.242;10.408;2024-01-30T13:09:26;10.50;99.90
7000;DHT22;3540;53.242;10.408;2024-01-30T13:11:52;10.50;99.90
7000;DHT22;3540;53.242;10.408;2024-01-30T13:14:18;10.50;99.90
7000;DHT22;3540;53.242;10.408;2024-01-30T13:16:44;10.50;99.90
7000;DHT22;3540;53.242;10.408;2024-01-30T13:19:09;10.50;99.90
7000;DHT22;3540;53.242;10.408;2024-01-30T13:21:35;10.50;99.90
7000;DHT22;3540;53.242;10.408;2024-01-30T13:24:01;10.50;99.90
7000;DHT22;3540;53.242;10.408;2024-01-30T13:26:26;10.50;99.90
7000;DHT22;3540;53.242;10.408;2024-01-30T13:28:52;10.50;99.90
7000;DHT22;3540;53.242;10.408;2024-01-30T13:31:18;10.50;99.90
7000;DHT22;3540;53.242;10.408;2024-01-30T13:33:44;10.50;99.90
7000;DHT22;3540;53.242;10.408;2024-01-30T13:36:11;10.40;99.90
7000;DHT22;3540;53.242;10.408;2024-01-30T13:38:37;10.40;99.90
7000;DHT22;3540;53.242;10.408;2024-01-30T13:41:03;10.50;99.90
7000;DHT22;3540;53.242;10.408;2024-01-30T13:43:29;10.40;99.90
7000;DHT22;3540;53.242;10.408;2024-01-30T13:45:55;10.50;99.90
7000;DHT22;3540;53.242;10.408;2024-01-30T13:48:20;10.40;99.90
7000;DHT22;3540;53.242;10.408;2024-01-30T13:50:47;10.40;99.90
7000;DHT22;3540;53.242;10.408;2024-01-30T13:53:13;10.40;99.90
7000;DHT22;3540;53.242;10.408;2024-01-30T13:55:38;10.40;99.90
7000;DHT22;3540;53.242;10.408;2024-01-30T13:58:05;10.40;99.90
7000;DHT22;3540;53.242;10.408;2024-01-30T14:00:31;10.40;99.90
7000;DHT22;3540;53.242;10.408;2024-01-30T14:02:56;10.40;99.90
7000;DHT22;3540;53.242;10.408;2024-01-30T14:05:24;10.40;99.90
7000;DHT22;3540;53.242;10.408;2024-01-30T14:07:51;10.40;99.90
7000;DHT22;3540;53.242;10.408;2024-01-30T14:10:17;10.40;99.90
7000;DHT22;3540;53.242;10.408;2024-01-30T14:12:43;10.40;99.90
7000;DHT22;3540;53.242;10.408;2024-01-30T14:15:10;10.50;99.90
7000;DHT22;3540;53.242;10.408;2024-01-30T14:17:36;10.40;99.90
7000;DHT22;3540;53.242;10.408;2024-01-30T14:20:06;10.50;99.90
7000;DHT22;3540;53.242;10.408;2024-01-30T14:22:33;10.50;99.90
7000;DHT22;3540;53.242;10.408;2024-01-30T14:24:59;10.40;99.90
7000;DHT22;3540;53.242;10.408;2024-01-30T14:27:24;10.40;99.90
7000;DHT22;3540;53.242;10.408;2024-01-30T14:29:50;10.50;99.90
7000;DHT22;3540;53.242;10.408;2024-01-30T14:32:16;10.50;99.90
7000;DHT22;3540;53.242;10.408;2024-01-30T14:34:41;10.50;99.90
7000;DHT22;3540;53.242;10.408;2024-01-30T14:37:07;10.50;99.90
7000;DHT22;3540;53.242;10.408;2024-01-30T14:39:33;10.50;99.90
7000;DHT22;3540;53.242;10.408;2024-01-30T14:41:59;10.60;99.90
7000;DHT22;3540;53.242;10.408;2024-01-30T14:44:25;10.60;99.90
7000;DHT22;3540;53.242;10.408;2024-01-30T14:46:50;10.60;99.90
7000;DHT22;3540;53.242;10.408;2024-01-30T14:49:17;10.60;99.90
7000;DHT22;3540;53.242;10.408;2024-01-30T14:51:42;10.60;99.90
7000;DHT22;3540;53.242;10.408;2024-01-30T14:54:08;10.60;99.90
7000;DHT22;3540;53.242;10.408;2024-01-30T14:56:34;10.60;99.90
7000;DHT22;3540;53.242;10.408;2024-01-30T14:59:00;10.60;99.90
7000;DHT22;3540;53.242;10.408;2024-01-30T15:01:25;10.50;99.90
7000;DHT22;3540;53.242;10.408;2024-01-30T15:03:51;10.50;99.90
7000;DHT22;3540;53.242;10.408;2024-01-30T15:06:17;10.50;99.90
7000;DHT22;3540;53.242;10.408;2024-01-30T15:08:43;10.50;99.90
7000;DHT22;3540;53.242;10.408;2024-01-30T15:11:09;10.50;99.90
7000;DHT22;3540;53.242;10.408;2024-01-30T15:13:35;10.50;99.90
7000;DHT22;3540;53.242;10.408;2024-01-30T15:16:01;10.40;99.90
7000;DHT22;3540;53.242;10.408;2024-01-30T15:18:28;10.40;99.90
7000;DHT22;3540;53.242;10.408;2024-01-30T15:20:54;10.50;99.90
7000;DHT22;3540;53.242;10.408;2024-01-30T15:23:19;10.40;99.90
7000;DHT22;3540;53.242;10.408;2024-01-30T15:25:45;10.40;99.90
7000;DHT22;3540;53.242;10.408;2024-01-30T15:28:11;10.50;99.90
7000;DHT22;3540;53.242;10.408;2024-01-30T15:30:36;10.40;99.90
7000;DHT22;3540;53.242;10.408;2024-01-30T15:33:02;10.40;99.90
7000;DHT22;3540;53.242;10.408;2024-01-30T15:35:28;10.40;99.90
7000;DHT22;3540;53.242;10.408;2024-01-30T15:37:53;10.40;99.90
7000;DHT22;3540;53.242;10.408;2024-01-30T15:40:19;10.40;99.90
7000;DHT22;3540;53.242;10.408;2024-01-30T15:42:46;10.40;99.90
7000;DHT22;3540;53.242;10.408;2024-01-30T15:45:11;10.40;99.90
7000;DHT22;3540;53.242;10.408;2024-01-30T15:47:37;10.50;99.90
7000;DHT22;3540;53.242;10.408;2024-01-30T15:50:03;10.50;99.90
7000;DHT22;3540;53.242;10.408;2024-01-30T15:52:29;10.50;99.90
7000;DHT22;3540;53.242;10.408;2024-01-30T15:54:55;10.50;99.90